Fort Benning, Lawson Army Airfield (KLSF)

NameLawson Army Airfield
CityFort Benning
CountryUnited States
ICAOKLSF
IATALSF
Altitude71 m
CoordinatesGoogle Map
Live Air TrafficLiveATC.net
METARKLSF 170056Z AUTO 30003KT 10SM CLR 15/14 A2980 RMK AO2 SLP095 T01490138
2019-02-17 00:56:00 Wind: West-Northwest (300°) 1.54 m/s - Visibility: 16093.4 m - Temperature: 15 °C - Dew point: 14 °C - Humidity: 93.8% - Pressure: 1009.14 hPa
Statistics

The table below shows the detailed information of all flights to/from Fort Benning, Lawson Army Airfield (KLSF).